sensor_id;sensor_type;location;lat;lon;timestamp;P1;durP1;ratioP1;P2;durP2;ratioP2
29370;SDS011;16357;52.188;7.838;2023-09-18T00:00:23;6.97;;;3.95;;
29370;SDS011;16357;52.188;7.838;2023-09-18T00:02:50;4.32;;;3.70;;
29370;SDS011;16357;52.188;7.838;2023-09-18T00:05:16;5.13;;;4.10;;
29370;SDS011;16357;52.188;7.838;2023-09-18T00:07:43;6.63;;;4.30;;
29370;SDS011;16357;52.188;7.838;2023-09-18T00:10:13;4.70;;;3.92;;
29370;SDS011;16357;52.188;7.838;2023-09-18T00:12:39;5.57;;;3.72;;
29370;SDS011;16357;52.188;7.838;2023-09-18T00:15:06;4.75;;;3.83;;
29370;SDS011;16357;52.188;7.838;2023-09-18T00:17:35;5.40;;;4.18;;
29370;SDS011;16357;52.188;7.838;2023-09-18T00:20:02;7.32;;;4.70;;
29370;SDS011;16357;52.188;7.838;2023-09-18T00:22:33;5.63;;;3.75;;
29370;SDS011;16357;52.188;7.838;2023-09-18T00:24:59;9.57;;;4.15;;
29370;SDS011;16357;52.188;7.838;2023-09-18T00:27:27;8.18;;;4.43;;
29370;SDS011;16357;52.188;7.838;2023-09-18T00:29:54;4.97;;;4.18;;
29370;SDS011;16357;52.188;7.838;2023-09-18T00:32:20;5.18;;;4.18;;
29370;SDS011;16357;52.188;7.838;2023-09-18T00:34:47;7.32;;;3.85;;
29370;SDS011;16357;52.188;7.838;2023-09-18T00:37:13;6.07;;;4.28;;
29370;SDS011;16357;52.188;7.838;2023-09-18T00:39:41;6.25;;;4.35;;
29370;SDS011;16357;52.188;7.838;2023-09-18T00:42:08;8.60;;;3.83;;
29370;SDS011;16357;52.188;7.838;2023-09-18T00:44:39;5.03;;;3.88;;
29370;SDS011;16357;52.188;7.838;2023-09-18T00:47:09;7.30;;;4.00;;
29370;SDS011;16357;52.188;7.838;2023-09-18T00:49:37;8.05;;;4.50;;
29370;SDS011;16357;52.188;7.838;2023-09-18T00:52:06;6.28;;;4.22;;
29370;SDS011;16357;52.188;7.838;2023-09-18T00:54:34;6.55;;;3.92;;
29370;SDS011;16357;52.188;7.838;2023-09-18T00:57:03;7.90;;;4.25;;
29370;SDS011;16357;52.188;7.838;2023-09-18T00:59:30;5.18;;;4.10;;
29370;SDS011;16357;52.188;7.838;2023-09-18T01:01:58;6.38;;;4.32;;
29370;SDS011;16357;52.188;7.838;2023-09-18T01:04:25;8.27;;;4.40;;
29370;SDS011;16357;52.188;7.838;2023-09-18T01:06:54;5.65;;;4.47;;
29370;SDS011;16357;52.188;7.838;2023-09-18T01:09:22;6.45;;;4.47;;
29370;SDS011;16357;52.188;7.838;2023-09-18T01:11:54;6.63;;;4.28;;
29370;SDS011;16357;52.188;7.838;2023-09-18T01:14:31;8.07;;;4.72;;
29370;SDS011;16357;52.188;7.838;2023-09-18T01:17:03;8.10;;;4.32;;
29370;SDS011;16357;52.188;7.838;2023-09-18T01:19:39;5.82;;;4.00;;
29370;SDS011;16357;52.188;7.838;2023-09-18T01:22:07;6.80;;;4.38;;
29370;SDS011;16357;52.188;7.838;2023-09-18T01:24:38;5.28;;;4.03;;
29370;SDS011;16357;52.188;7.838;2023-09-18T01:27:07;7.05;;;4.45;;
29370;SDS011;16357;52.188;7.838;2023-09-18T01:29:35;7.80;;;4.43;;
29370;SDS011;16357;52.188;7.838;2023-09-18T01:32:02;7.07;;;4.53;;
29370;SDS011;16357;52.188;7.838;2023-09-18T01:34:31;8.85;;;4.35;;
29370;SDS011;16357;52.188;7.838;2023-09-18T01:37:09;5.72;;;3.97;;
29370;SDS011;16357;52.188;7.838;2023-09-18T01:39:37;6.40;;;4.45;;
29370;SDS011;16357;52.188;7.838;2023-09-18T01:42:06;5.45;;;4.25;;
29370;SDS011;16357;52.188;7.838;2023-09-18T01:44:36;7.53;;;4.30;;
29370;SDS011;16357;52.188;7.838;2023-09-18T01:47:06;8.13;;;4.82;;
29370;SDS011;16357;52.188;7.838;2023-09-18T01:49:35;10.13;;;4.90;;
29370;SDS011;16357;52.188;7.838;2023-09-18T01:52:03;8.57;;;4.72;;
29370;SDS011;16357;52.188;7.838;2023-09-18T01:54:31;8.55;;;4.47;;
29370;SDS011;16357;52.188;7.838;2023-09-18T01:56:58;8.50;;;4.50;;
29370;SDS011;16357;52.188;7.838;2023-09-18T01:59:25;10.38;;;4.35;;
29370;SDS011;16357;52.188;7.838;2023-09-18T02:01:52;7.15;;;4.30;;
29370;SDS011;16357;52.188;7.838;2023-09-18T02:04:23;7.03;;;4.10;;
29370;SDS011;16357;52.188;7.838;2023-09-18T02:07:09;6.13;;;4.28;;
29370;SDS011;16357;52.188;7.838;2023-09-18T02:09:36;7.90;;;4.40;;
29370;SDS011;16357;52.188;7.838;2023-09-18T02:12:03;5.72;;;4.22;;
29370;SDS011;16357;52.188;7.838;2023-09-18T02:14:30;6.20;;;4.43;;
29370;SDS011;16357;52.188;7.838;2023-09-18T02:16:57;5.07;;;4.00;;
29370;SDS011;16357;52.188;7.838;2023-09-18T02:19:24;6.72;;;4.25;;
29370;SDS011;16357;52.188;7.838;2023-09-18T02:21:50;6.75;;;4.35;;
29370;SDS011;16357;52.188;7.838;2023-09-18T02:24:17;6.22;;;4.22;;
29370;SDS011;16357;52.188;7.838;2023-09-18T02:26:43;7.47;;;4.38;;
29370;SDS011;16357;52.188;7.838;2023-09-18T02:29:11;7.60;;;4.22;;
29370;SDS011;16357;52.188;7.838;2023-09-18T02:31:40;8.50;;;4.28;;
29370;SDS011;16357;52.188;7.838;2023-09-18T02:34:06;6.30;;;4.30;;
29370;SDS011;16357;52.188;7.838;2023-09-18T02:36:33;7.53;;;4.65;;
29370;SDS011;16357;52.188;7.838;2023-09-18T02:38:59;5.53;;;4.00;;
29370;SDS011;16357;52.188;7.838;2023-09-18T02:41:26;7.25;;;4.15;;
29370;SDS011;16357;52.188;7.838;2023-09-18T02:43:52;7.53;;;4.00;;
29370;SDS011;16357;52.188;7.838;2023-09-18T02:46:19;8.10;;;3.97;;
29370;SDS011;16357;52.188;7.838;2023-09-18T02:48:45;7.43;;;4.00;;
29370;SDS011;16357;52.188;7.838;2023-09-18T02:51:12;7.03;;;4.18;;
29370;SDS011;16357;52.188;7.838;2023-09-18T02:53:39;5.18;;;3.97;;
29370;SDS011;16357;52.188;7.838;2023-09-18T02:56:05;6.38;;;4.07;;
29370;SDS011;16357;52.188;7.838;2023-09-18T02:58:32;6.90;;;3.92;;
29370;SDS011;16357;52.188;7.838;2023-09-18T03:00:58;10.65;;;4.35;;
29370;SDS011;16357;52.188;7.838;2023-09-18T03:03:25;5.95;;;3.60;;
29370;SDS011;16357;52.188;7.838;2023-09-18T03:05:52;8.13;;;3.97;;
29370;SDS011;16357;52.188;7.838;2023-09-18T03:08:19;8.60;;;4.38;;
29370;SDS011;16357;52.188;7.838;2023-09-18T03:10:45;10.18;;;4.40;;
29370;SDS011;16357;52.188;7.838;2023-09-18T03:13:13;7.13;;;3.70;;
29370;SDS011;16357;52.188;7.838;2023-09-18T03:15:41;8.90;;;3.78;;
29370;SDS011;16357;52.188;7.838;2023-09-18T03:18:11;7.07;;;3.97;;
29370;SDS011;16357;52.188;7.838;2023-09-18T03:20:37;4.32;;;3.67;;
29370;SDS011;16357;52.188;7.838;2023-09-18T03:23:04;5.35;;;3.80;;
29370;SDS011;16357;52.188;7.838;2023-09-18T03:25:31;6.85;;;4.13;;
29370;SDS011;16357;52.188;7.838;2023-09-18T03:28:17;6.22;;;4.13;;
29370;SDS011;16357;52.188;7.838;2023-09-18T03:30:43;5.57;;;3.67;;
29370;SDS011;16357;52.188;7.838;2023-09-18T03:33:10;7.65;;;3.97;;
29370;SDS011;16357;52.188;7.838;2023-09-18T03:35:46;6.75;;;3.90;;
29370;SDS011;16357;52.188;7.838;2023-09-18T03:38:14;5.82;;;4.18;;
29370;SDS011;16357;52.188;7.838;2023-09-18T03:40:41;7.80;;;4.00;;
29370;SDS011;16357;52.188;7.838;2023-09-18T03:43:08;6.63;;;3.75;;
29370;SDS011;16357;52.188;7.838;2023-09-18T03:45:35;7.45;;;3.88;;
29370;SDS011;16357;52.188;7.838;2023-09-18T03:48:02;8.52;;;3.90;;
29370;SDS011;16357;52.188;7.838;2023-09-18T03:50:29;10.20;;;4.57;;
29370;SDS011;16357;52.188;7.838;2023-09-18T03:52:55;6.28;;;3.90;;
29370;SDS011;16357;52.188;7.838;2023-09-18T03:55:22;9.48;;;3.88;;
29370;SDS011;16357;52.188;7.838;2023-09-18T03:57:48;9.32;;;3.80;;
29370;SDS011;16357;52.188;7.838;2023-09-18T04:00:15;7.68;;;3.85;;
29370;SDS011;16357;52.188;7.838;2023-09-18T04:02:42;6.82;;;4.15;;
29370;SDS011;16357;52.188;7.838;2023-09-18T04:05:09;5.20;;;3.97;;
29370;SDS011;16357;52.188;7.838;2023-09-18T04:07:36;7.10;;;3.92;;
29370;SDS011;16357;52.188;7.838;2023-09-18T04:10:02;6.38;;;4.32;;
29370;SDS011;16357;52.188;7.838;2023-09-18T04:12:29;7.78;;;4.13;;
29370;SDS011;16357;52.188;7.838;2023-09-18T04:14:56;6.50;;;3.90;;
29370;SDS011;16357;52.188;7.838;2023-09-18T04:17:22;9.48;;;3.78;;
29370;SDS011;16357;52.188;7.838;2023-09-18T04:19:49;7.07;;;3.95;;
29370;SDS011;16357;52.188;7.838;2023-09-18T04:22:15;6.07;;;3.65;;
29370;SDS011;16357;52.188;7.838;2023-09-18T04:24:42;5.35;;;3.97;;
29370;SDS011;16357;52.188;7.838;2023-09-18T04:27:08;5.72;;;4.07;;
29370;SDS011;16357;52.188;7.838;2023-09-18T04:29:35;8.63;;;4.00;;
29370;SDS011;16357;52.188;7.838;2023-09-18T04:32:02;8.13;;;4.50;;
29370;SDS011;16357;52.188;7.838;2023-09-18T04:34:30;8.95;;;4.32;;
29370;SDS011;16357;52.188;7.838;2023-09-18T04:36:57;6.68;;;3.92;;
29370;SDS011;16357;52.188;7.838;2023-09-18T04:39:23;6.60;;;3.70;;
29370;SDS011;16357;52.188;7.838;2023-09-18T04:41:49;6.90;;;3.95;;
29370;SDS011;16357;52.188;7.838;2023-09-18T04:44:16;6.03;;;4.10;;
29370;SDS011;16357;52.188;7.838;2023-09-18T04:46:43;10.65;;;4.15;;
29370;SDS011;16357;52.188;7.838;2023-09-18T04:49:10;5.45;;;4.15;;
29370;SDS011;16357;52.188;7.838;2023-09-18T04:51:37;6.68;;;4.07;;
29370;SDS011;16357;52.188;7.838;2023-09-18T04:54:05;4.18;;;3.38;;
29370;SDS011;16357;52.188;7.838;2023-09-18T04:56:32;4.85;;;3.65;;
29370;SDS011;16357;52.188;7.838;2023-09-18T04:58:59;7.80;;;4.18;;
29370;SDS011;16357;52.188;7.838;2023-09-18T05:01:26;7.78;;;4.03;;
29370;SDS011;16357;52.188;7.838;2023-09-18T05:03:52;8.85;;;4.00;;
29370;SDS011;16357;52.188;7.838;2023-09-18T05:06:19;9.25;;;4.75;;
29370;SDS011;16357;52.188;7.838;2023-09-18T05:08:47;7.35;;;4.13;;
29370;SDS011;16357;52.188;7.838;2023-09-18T05:11:13;6.53;;;3.67;;
29370;SDS011;16357;52.188;7.838;2023-09-18T05:13:40;6.60;;;3.78;;
29370;SDS011;16357;52.188;7.838;2023-09-18T05:16:06;7.82;;;3.97;;
29370;SDS011;16357;52.188;7.838;2023-09-18T05:18:33;6.38;;;3.80;;
29370;SDS011;16357;52.188;7.838;2023-09-18T05:20:59;5.53;;;3.92;;
29370;SDS011;16357;52.188;7.838;2023-09-18T05:23:27;5.88;;;3.90;;
29370;SDS011;16357;52.188;7.838;2023-09-18T05:25:54;6.68;;;3.83;;
29370;SDS011;16357;52.188;7.838;2023-09-18T05:28:21;6.85;;;4.00;;
29370;SDS011;16357;52.188;7.838;2023-09-18T05:30:47;9.52;;;3.95;;
29370;SDS011;16357;52.188;7.838;2023-09-18T05:33:13;5.47;;;3.90;;
29370;SDS011;16357;52.188;7.838;2023-09-18T05:35:41;8.43;;;3.83;;
29370;SDS011;16357;52.188;7.838;2023-09-18T05:38:09;5.53;;;3.45;;
29370;SDS011;16357;52.188;7.838;2023-09-18T05:40:37;7.18;;;3.75;;
29370;SDS011;16357;52.188;7.838;2023-09-18T05:43:03;6.03;;;3.78;;
29370;SDS011;16357;52.188;7.838;2023-09-18T05:45:30;7.00;;;3.78;;
29370;SDS011;16357;52.188;7.838;2023-09-18T05:47:58;8.00;;;3.75;;
29370;SDS011;16357;52.188;7.838;2023-09-18T05:50:30;7.13;;;3.67;;
29370;SDS011;16357;52.188;7.838;2023-09-18T05:52:58;4.50;;;3.22;;
29370;SDS011;16357;52.188;7.838;2023-09-18T05:55:29;7.32;;;4.10;;
29370;SDS011;16357;52.188;7.838;2023-09-18T05:57:57;11.15;;;3.83;;
29370;SDS011;16357;52.188;7.838;2023-09-18T06:00:23;6.63;;;3.95;;
29370;SDS011;16357;52.188;7.838;2023-09-18T06:02:50;7.10;;;3.40;;
29370;SDS011;16357;52.188;7.838;2023-09-18T06:05:20;7.10;;;3.90;;
29370;SDS011;16357;52.188;7.838;2023-09-18T06:07:50;7.93;;;3.88;;
29370;SDS011;16357;52.188;7.838;2023-09-18T06:10:17;7.88;;;3.67;;
29370;SDS011;16357;52.188;7.838;2023-09-18T06:12:44;6.30;;;3.83;;
29370;SDS011;16357;52.188;7.838;2023-09-18T06:15:14;5.80;;;3.50;;
29370;SDS011;16357;52.188;7.838;2023-09-18T06:17:41;7.07;;;3.75;;
29370;SDS011;16357;52.188;7.838;2023-09-18T06:20:09;6.00;;;3.60;;
29370;SDS011;16357;52.188;7.838;2023-09-18T06:22:39;8.95;;;3.63;;
29370;SDS011;16357;52.188;7.838;2023-09-18T06:25:06;7.57;;;3.78;;
29370;SDS011;16357;52.188;7.838;2023-09-18T06:27:36;8.35;;;3.88;;
29370;SDS011;16357;52.188;7.838;2023-09-18T06:30:04;4.95;;;3.13;;
29370;SDS011;16357;52.188;7.838;2023-09-18T06:32:31;7.80;;;3.65;;
29370;SDS011;16357;52.188;7.838;2023-09-18T06:34:58;8.77;;;3.63;;
29370;SDS011;16357;52.188;7.838;2023-09-18T06:37:24;5.05;;;3.35;;
29370;SDS011;16357;52.188;7.838;2023-09-18T06:39:51;8.25;;;3.45;;
29370;SDS011;16357;52.188;7.838;2023-09-18T06:42:18;5.05;;;3.33;;
29370;SDS011;16357;52.188;7.838;2023-09-18T06:44:44;5.75;;;3.40;;
29370;SDS011;16357;52.188;7.838;2023-09-18T06:47:11;6.25;;;3.42;;
29370;SDS011;16357;52.188;7.838;2023-09-18T06:49:38;6.72;;;3.17;;
29370;SDS011;16357;52.188;7.838;2023-09-18T06:52:04;8.45;;;3.30;;
29370;SDS011;16357;52.188;7.838;2023-09-18T06:54:32;7.55;;;3.38;;
29370;SDS011;16357;52.188;7.838;2023-09-18T06:56:58;6.85;;;3.50;;
29370;SDS011;16357;52.188;7.838;2023-09-18T06:59:25;6.63;;;3.50;;
29370;SDS011;16357;52.188;7.838;2023-09-18T07:01:53;7.78;;;3.40;;
29370;SDS011;16357;52.188;7.838;2023-09-18T07:04:20;10.07;;;3.50;;
29370;SDS011;16357;52.188;7.838;2023-09-18T07:06:47;6.85;;;3.30;;
29370;SDS011;16357;52.188;7.838;2023-09-18T07:09:13;9.15;;;3.50;;
29370;SDS011;16357;52.188;7.838;2023-09-18T07:11:40;7.85;;;3.28;;
29370;SDS011;16357;52.188;7.838;2023-09-18T07:14:06;11.27;;;3.55;;
29370;SDS011;16357;52.188;7.838;2023-09-18T07:16:34;6.68;;;3.05;;
29370;SDS011;16357;52.188;7.838;2023-09-18T07:19:00;7.10;;;3.08;;
29370;SDS011;16357;52.188;7.838;2023-09-18T07:21:30;10.52;;;2.90;;
29370;SDS011;16357;52.188;7.838;2023-09-18T07:23:57;10.18;;;3.15;;
29370;SDS011;16357;52.188;7.838;2023-09-18T07:26:23;7.30;;;2.75;;
29370;SDS011;16357;52.188;7.838;2023-09-18T07:28:50;7.15;;;2.78;;
29370;SDS011;16357;52.188;7.838;2023-09-18T07:31:17;8.40;;;3.10;;
29370;SDS011;16357;52.188;7.838;2023-09-18T07:33:43;7.22;;;3.15;;
29370;SDS011;16357;52.188;7.838;2023-09-18T07:36:10;13.50;;;3.22;;
29370;SDS011;16357;52.188;7.838;2023-09-18T07:38:36;7.75;;;2.75;;
29370;SDS011;16357;52.188;7.838;2023-09-18T07:41:04;9.77;;;2.65;;
29370;SDS011;16357;52.188;7.838;2023-09-18T07:43:30;8.90;;;3.03;;
29370;SDS011;16357;52.188;7.838;2023-09-18T07:45:57;8.75;;;2.83;;
29370;SDS011;16357;52.188;7.838;2023-09-18T07:48:24;9.02;;;2.67;;
29370;SDS011;16357;52.188;7.838;2023-09-18T07:50:51;7.68;;;2.85;;
29370;SDS011;16357;52.188;7.838;2023-09-18T07:53:18;7.10;;;2.63;;
29370;SDS011;16357;52.188;7.838;2023-09-18T07:55:44;9.63;;;3.05;;
29370;SDS011;16357;52.188;7.838;2023-09-18T07:58:11;10.25;;;3.05;;
29370;SDS011;16357;52.188;7.838;2023-09-18T08:00:38;7.57;;;2.90;;
29370;SDS011;16357;52.188;7.838;2023-09-18T08:03:05;8.05;;;2.88;;
29370;SDS011;16357;52.188;7.838;2023-09-18T08:05:32;6.15;;;3.00;;
29370;SDS011;16357;52.188;7.838;2023-09-18T08:07:58;7.85;;;2.67;;
29370;SDS011;16357;52.188;7.838;2023-09-18T08:10:31;8.52;;;2.60;;
29370;SDS011;16357;52.188;7.838;2023-09-18T08:12:57;7.35;;;2.83;;
29370;SDS011;16357;52.188;7.838;2023-09-18T08:15:24;9.35;;;2.75;;
29370;SDS011;16357;52.188;7.838;2023-09-18T08:17:50;5.43;;;2.80;;
29370;SDS011;16357;52.188;7.838;2023-09-18T08:20:18;7.50;;;2.70;;
29370;SDS011;16357;52.188;7.838;2023-09-18T08:22:45;8.10;;;3.13;;
29370;SDS011;16357;52.188;7.838;2023-09-18T08:25:13;10.73;;;3.10;;
29370;SDS011;16357;52.188;7.838;2023-09-18T08:27:40;8.88;;;3.17;;
29370;SDS011;16357;52.188;7.838;2023-09-18T08:30:10;7.13;;;2.60;;
29370;SDS011;16357;52.188;7.838;2023-09-18T08:32:38;5.90;;;2.65;;
29370;SDS011;16357;52.188;7.838;2023-09-18T08:35:05;12.15;;;2.67;;
29370;SDS011;16357;52.188;7.838;2023-09-18T08:37:32;7.30;;;2.33;;
29370;SDS011;16357;52.188;7.838;2023-09-18T08:39:59;9.32;;;2.83;;
29370;SDS011;16357;52.188;7.838;2023-09-18T08:42:40;8.02;;;2.35;;
29370;SDS011;16357;52.188;7.838;2023-09-18T08:45:11;6.07;;;2.53;;
29370;SDS011;16357;52.188;7.838;2023-09-18T08:47:48;9.00;;;2.28;;
29370;SDS011;16357;52.188;7.838;2023-09-18T08:50:17;5.90;;;2.10;;
29370;SDS011;16357;52.188;7.838;2023-09-18T08:52:45;12.20;;;2.83;;
29370;SDS011;16357;52.188;7.838;2023-09-18T08:55:14;6.90;;;2.50;;
29370;SDS011;16357;52.188;7.838;2023-09-18T08:57:41;5.18;;;2.53;;
29370;SDS011;16357;52.188;7.838;2023-09-18T09:00:09;5.45;;;2.05;;
29370;SDS011;16357;52.188;7.838;2023-09-18T09:02:38;8.77;;;2.58;;
29370;SDS011;16357;52.188;7.838;2023-09-18T09:05:05;5.28;;;2.20;;
29370;SDS011;16357;52.188;7.838;2023-09-18T09:07:32;5.47;;;2.28;;
29370;SDS011;16357;52.188;7.838;2023-09-18T09:09:58;7.15;;;2.03;;
29370;SDS011;16357;52.188;7.838;2023-09-18T09:15:22;8.48;;;2.38;;
29370;SDS011;16357;52.188;7.838;2023-09-18T09:17:50;5.82;;;2.20;;
29370;SDS011;16357;52.188;7.838;2023-09-18T09:20:18;5.93;;;2.05;;
29370;SDS011;16357;52.188;7.838;2023-09-18T09:22:47;6.15;;;2.13;;
29370;SDS011;16357;52.188;7.838;2023-09-18T09:27:46;5.15;;;1.80;;
29370;SDS011;16357;52.188;7.838;2023-09-18T09:30:23;5.57;;;2.40;;
29370;SDS011;16357;52.188;7.838;2023-09-18T09:32:52;6.75;;;2.20;;
29370;SDS011;16357;52.188;7.838;2023-09-18T09:35:24;4.45;;;2.00;;
29370;SDS011;16357;52.188;7.838;2023-09-18T09:37:59;6.38;;;2.00;;
29370;SDS011;16357;52.188;7.838;2023-09-18T09:40:28;5.53;;;2.17;;
29370;SDS011;16357;52.188;7.838;2023-09-18T09:42:56;6.03;;;2.30;;
29370;SDS011;16357;52.188;7.838;2023-09-18T09:45:30;3.13;;;1.65;;
29370;SDS011;16357;52.188;7.838;2023-09-18T09:48:02;5.65;;;2.17;;
29370;SDS011;16357;52.188;7.838;2023-09-18T09:50:31;4.90;;;1.63;;
29370;SDS011;16357;52.188;7.838;2023-09-18T09:52:58;4.25;;;1.77;;
29370;SDS011;16357;52.188;7.838;2023-09-18T09:55:29;4.57;;;2.20;;
29370;SDS011;16357;52.188;7.838;2023-09-18T09:57:58;4.00;;;1.60;;
29370;SDS011;16357;52.188;7.838;2023-09-18T10:00:31;4.68;;;2.03;;
29370;SDS011;16357;52.188;7.838;2023-09-18T10:03:18;6.03;;;1.80;;
29370;SDS011;16357;52.188;7.838;2023-09-18T10:05:47;4.93;;;2.00;;
29370;SDS011;16357;52.188;7.838;2023-09-18T10:08:18;3.72;;;2.00;;
29370;SDS011;16357;52.188;7.838;2023-09-18T10:10:48;3.20;;;1.85;;
29370;SDS011;16357;52.188;7.838;2023-09-18T10:13:17;4.63;;;1.80;;
29370;SDS011;16357;52.188;7.838;2023-09-18T10:15:47;3.40;;;1.52;;
29370;SDS011;16357;52.188;7.838;2023-09-18T10:18:25;4.82;;;1.95;;
29370;SDS011;16357;52.188;7.838;2023-09-18T10:20:56;4.65;;;1.50;;
29370;SDS011;16357;52.188;7.838;2023-09-18T10:23:34;5.10;;;1.63;;
29370;SDS011;16357;52.188;7.838;2023-09-18T10:26:10;4.35;;;1.70;;
29370;SDS011;16357;52.188;7.838;2023-09-18T10:28:44;3.05;;;1.48;;
29370;SDS011;16357;52.188;7.838;2023-09-18T10:31:11;7.40;;;2.10;;
29370;SDS011;16357;52.188;7.838;2023-09-18T10:33:39;4.07;;;1.98;;
29370;SDS011;16357;52.188;7.838;2023-09-18T10:36:06;2.25;;;1.50;;
29370;SDS011;16357;52.188;7.838;2023-09-18T10:38:34;6.07;;;1.70;;
29370;SDS011;16357;52.188;7.838;2023-09-18T10:41:04;2.90;;;1.55;;
29370;SDS011;16357;52.188;7.838;2023-09-18T10:43:31;2.85;;;1.50;;
29370;SDS011;16357;52.188;7.838;2023-09-18T10:45:57;4.88;;;1.80;;
29370;SDS011;16357;52.188;7.838;2023-09-18T10:48:24;2.53;;;1.58;;
29370;SDS011;16357;52.188;7.838;2023-09-18T10:50:53;2.40;;;1.30;;
29370;SDS011;16357;52.188;7.838;2023-09-18T10:53:19;4.25;;;1.50;;
29370;SDS011;16357;52.188;7.838;2023-09-18T10:55:48;7.30;;;1.60;;
29370;SDS011;16357;52.188;7.838;2023-09-18T10:58:22;4.03;;;1.60;;
29370;SDS011;16357;52.188;7.838;2023-09-18T11:03:18;4.90;;;1.45;;
29370;SDS011;16357;52.188;7.838;2023-09-18T11:05:45;2.15;;;1.55;;
29370;SDS011;16357;52.188;7.838;2023-09-18T11:11:07;3.13;;;1.77;;
29370;SDS011;16357;52.188;7.838;2023-09-18T11:13:43;3.35;;;1.40;;
29370;SDS011;16357;52.188;7.838;2023-09-18T11:18:51;3.95;;;1.60;;
29370;SDS011;16357;52.188;7.838;2023-09-18T11:21:23;2.28;;;1.30;;
29370;SDS011;16357;52.188;7.838;2023-09-18T11:24:00;9.73;;;1.80;;
29370;SDS011;16357;52.188;7.838;2023-09-18T11:26:34;3.70;;;1.60;;
29370;SDS011;16357;52.188;7.838;2023-09-18T11:29:05;2.17;;;1.40;;
29370;SDS011;16357;52.188;7.838;2023-09-18T11:32:08;3.47;;;1.33;;
29370;SDS011;16357;52.188;7.838;2023-09-18T11:34:31;2.97;;;1.45;;
29370;SDS011;16357;52.188;7.838;2023-09-18T11:36:57;4.25;;;1.60;;
29370;SDS011;16357;52.188;7.838;2023-09-18T11:39:34;5.72;;;1.25;;
29370;SDS011;16357;52.188;7.838;2023-09-18T11:42:11;3.00;;;1.40;;
29370;SDS011;16357;52.188;7.838;2023-09-18T11:44:39;2.50;;;1.23;;
29370;SDS011;16357;52.188;7.838;2023-09-18T11:47:17;2.60;;;1.27;;
29370;SDS011;16357;52.188;7.838;2023-09-18T11:52:22;2.70;;;1.20;;
29370;SDS011;16357;52.188;7.838;2023-09-18T11:54:51;2.38;;;1.10;;
29370;SDS011;16357;52.188;7.838;2023-09-18T11:57:18;1.25;;;1.00;;
29370;SDS011;16357;52.188;7.838;2023-09-18T11:59:48;4.15;;;1.40;;
29370;SDS011;16357;52.188;7.838;2023-09-18T12:04:54;3.72;;;1.17;;
29370;SDS011;16357;52.188;7.838;2023-09-18T12:07:21;1.98;;;1.15;;
29370;SDS011;16357;52.188;7.838;2023-09-18T12:09:48;2.67;;;1.10;;
29370;SDS011;16357;52.188;7.838;2023-09-18T12:12:15;3.25;;;1.10;;
29370;SDS011;16357;52.188;7.838;2023-09-18T12:14:43;3.45;;;1.38;;
29370;SDS011;16357;52.188;7.838;2023-09-18T12:17:13;2.45;;;1.20;;
29370;SDS011;16357;52.188;7.838;2023-09-18T12:19:51;2.20;;;1.05;;
29370;SDS011;16357;52.188;7.838;2023-09-18T12:22:27;2.10;;;1.00;;
29370;SDS011;16357;52.188;7.838;2023-09-18T12:25:08;2.90;;;1.20;;
29370;SDS011;16357;52.188;7.838;2023-09-18T12:27:42;1.58;;;0.90;;
29370;SDS011;16357;52.188;7.838;2023-09-18T12:30:09;2.38;;;1.00;;
29370;SDS011;16357;52.188;7.838;2023-09-18T12:32:37;2.65;;;1.25;;
29370;SDS011;16357;52.188;7.838;2023-09-18T12:35:07;3.17;;;1.27;;
29370;SDS011;16357;52.188;7.838;2023-09-18T12:37:41;6.03;;;1.70;;
29370;SDS011;16357;52.188;7.838;2023-09-18T12:40:21;3.03;;;1.27;;
29370;SDS011;16357;52.188;7.838;2023-09-18T12:42:49;7.40;;;2.20;;
29370;SDS011;16357;52.188;7.838;2023-09-18T12:45:16;4.03;;;1.70;;
29370;SDS011;16357;52.188;7.838;2023-09-18T12:47:43;2.25;;;1.10;;
29370;SDS011;16357;52.188;7.838;2023-09-18T12:50:12;1.92;;;1.38;;
29370;SDS011;16357;52.188;7.838;2023-09-18T12:52:40;2.75;;;1.13;;
29370;SDS011;16357;52.188;7.838;2023-09-18T12:55:07;3.65;;;1.27;;
29370;SDS011;16357;52.188;7.838;2023-09-18T12:57:34;1.27;;;1.10;;
29370;SDS011;16357;52.188;7.838;2023-09-18T13:00:10;3.60;;;1.63;;
29370;SDS011;16357;52.188;7.838;2023-09-18T13:02:39;2.65;;;1.45;;
29370;SDS011;16357;52.188;7.838;2023-09-18T13:05:06;3.25;;;1.20;;
29370;SDS011;16357;52.188;7.838;2023-09-18T13:07:42;3.33;;;1.40;;
29370;SDS011;16357;52.188;7.838;2023-09-18T13:10:10;4.80;;;1.25;;
29370;SDS011;16357;52.188;7.838;2023-09-18T13:12:41;2.13;;;1.42;;
29370;SDS011;16357;52.188;7.838;2023-09-18T13:15:25;6.18;;;1.35;;
29370;SDS011;16357;52.188;7.838;2023-09-18T13:17:53;2.22;;;1.30;;
29370;SDS011;16357;52.188;7.838;2023-09-18T13:20:21;3.10;;;1.38;;
29370;SDS011;16357;52.188;7.838;2023-09-18T13:22:51;4.63;;;1.63;;
29370;SDS011;16357;52.188;7.838;2023-09-18T13:25:19;3.35;;;1.20;;
29370;SDS011;16357;52.188;7.838;2023-09-18T13:27:50;2.00;;;1.27;;
29370;SDS011;16357;52.188;7.838;2023-09-18T13:30:17;2.05;;;1.15;;
29370;SDS011;16357;52.188;7.838;2023-09-18T13:32:44;2.70;;;1.40;;
29370;SDS011;16357;52.188;7.838;2023-09-18T13:35:11;2.53;;;1.35;;
29370;SDS011;16357;52.188;7.838;2023-09-18T13:37:40;2.10;;;1.40;;
29370;SDS011;16357;52.188;7.838;2023-09-18T13:40:07;4.85;;;1.70;;
29370;SDS011;16357;52.188;7.838;2023-09-18T13:42:35;2.58;;;1.50;;
29370;SDS011;16357;52.188;7.838;2023-09-18T13:45:02;2.10;;;1.38;;
29370;SDS011;16357;52.188;7.838;2023-09-18T13:47:32;3.17;;;1.40;;
29370;SDS011;16357;52.188;7.838;2023-09-18T13:50:00;2.00;;;1.38;;
29370;SDS011;16357;52.188;7.838;2023-09-18T13:52:29;2.70;;;1.45;;
29370;SDS011;16357;52.188;7.838;2023-09-18T13:54:57;3.17;;;1.45;;
29370;SDS011;16357;52.188;7.838;2023-09-18T13:57:24;3.95;;;1.75;;
29370;SDS011;16357;52.188;7.838;2023-09-18T13:59:51;7.57;;;1.50;;
29370;SDS011;16357;52.188;7.838;2023-09-18T14:02:18;2.47;;;1.35;;
29370;SDS011;16357;52.188;7.838;2023-09-18T14:04:45;1.65;;;1.20;;
29370;SDS011;16357;52.188;7.838;2023-09-18T14:07:11;3.17;;;1.75;;
29370;SDS011;16357;52.188;7.838;2023-09-18T14:09:38;3.15;;;1.50;;
29370;SDS011;16357;52.188;7.838;2023-09-18T14:12:05;2.83;;;1.63;;
29370;SDS011;16357;52.188;7.838;2023-09-18T14:14:35;3.00;;;1.65;;
29370;SDS011;16357;52.188;7.838;2023-09-18T14:17:02;3.28;;;1.60;;
29370;SDS011;16357;52.188;7.838;2023-09-18T14:19:31;7.95;;;1.67;;
29370;SDS011;16357;52.188;7.838;2023-09-18T14:21:58;7.55;;;1.80;;
29370;SDS011;16357;52.188;7.838;2023-09-18T14:24:30;1.85;;;1.45;;
29370;SDS011;16357;52.188;7.838;2023-09-18T14:26:57;2.33;;;1.35;;
29370;SDS011;16357;52.188;7.838;2023-09-18T14:29:23;4.38;;;1.83;;
29370;SDS011;16357;52.188;7.838;2023-09-18T14:31:50;3.38;;;1.75;;
29370;SDS011;16357;52.188;7.838;2023-09-18T14:34:17;4.03;;;1.50;;
29370;SDS011;16357;52.188;7.838;2023-09-18T14:36:43;4.00;;;1.80;;
29370;SDS011;16357;52.188;7.838;2023-09-18T14:39:14;2.50;;;1.45;;
29370;SDS011;16357;52.188;7.838;2023-09-18T14:41:41;3.92;;;1.52;;
29370;SDS011;16357;52.188;7.838;2023-09-18T14:44:08;5.00;;;1.90;;
29370;SDS011;16357;52.188;7.838;2023-09-18T14:46:35;3.90;;;2.15;;
29370;SDS011;16357;52.188;7.838;2023-09-18T14:49:03;3.03;;;1.38;;
29370;SDS011;16357;52.188;7.838;2023-09-18T14:51:31;5.03;;;1.67;;
29370;SDS011;16357;52.188;7.838;2023-09-18T14:53:58;3.47;;;1.73;;
29370;SDS011;16357;52.188;7.838;2023-09-18T14:56:25;3.33;;;1.50;;
29370;SDS011;16357;52.188;7.838;2023-09-18T14:58:52;3.35;;;1.42;;
29370;SDS011;16357;52.188;7.838;2023-09-18T15:01:19;2.72;;;1.52;;
29370;SDS011;16357;52.188;7.838;2023-09-18T15:03:47;2.72;;;1.83;;
29370;SDS011;16357;52.188;7.838;2023-09-18T15:06:17;3.50;;;1.73;;
29370;SDS011;16357;52.188;7.838;2023-09-18T15:08:44;4.90;;;1.83;;
29370;SDS011;16357;52.188;7.838;2023-09-18T15:11:10;2.75;;;1.55;;
29370;SDS011;16357;52.188;7.838;2023-09-18T15:13:37;2.30;;;1.70;;